sensor_id;sensor_type;location;lat;lon;timestamp;pressure;altitude;pressure_sealevel;temperature;humidity
25430;BME280;13360;48.152;-1.788;2023-08-08T00:01:23;101925.28;;;19.30;100.00
25430;BME280;13360;48.152;-1.788;2023-08-08T00:03:48;101926.75;;;19.28;100.00
25430;BME280;13360;48.152;-1.788;2023-08-08T00:06:13;101935.47;;;19.26;100.00
25430;BME280;13360;48.152;-1.788;2023-08-08T00:08:39;101928.22;;;19.25;100.00
25430;BME280;13360;48.152;-1.788;2023-08-08T00:11:04;101926.59;;;19.24;100.00
25430;BME280;13360;48.152;-1.788;2023-08-08T00:13:29;101929.38;;;19.24;100.00
25430;BME280;13360;48.152;-1.788;2023-08-08T00:15:55;101934.50;;;19.22;100.00
25430;BME280;13360;48.152;-1.788;2023-08-08T00:18:20;101932.84;;;19.21;100.00
25430;BME280;13360;48.152;-1.788;2023-08-08T00:20:45;101934.66;;;19.17;100.00
25430;BME280;13360;48.152;-1.788;2023-08-08T00:23:10;101936.63;;;19.16;100.00
25430;BME280;13360;48.152;-1.788;2023-08-08T00:25:36;101935.28;;;19.14;100.00
25430;BME280;13360;48.152;-1.788;2023-08-08T00:28:02;101934.78;;;19.12;100.00
25430;BME280;13360;48.152;-1.788;2023-08-08T00:30:27;101927.53;;;19.11;100.00
25430;BME280;13360;48.152;-1.788;2023-08-08T00:32:52;101931.16;;;19.11;100.00
25430;BME280;13360;48.152;-1.788;2023-08-08T00:35:17;101934.28;;;19.10;100.00
25430;BME280;13360;48.152;-1.788;2023-08-08T00:37:43;101923.41;;;19.08;100.00
25430;BME280;13360;48.152;-1.788;2023-08-08T00:40:08;101920.94;;;19.07;100.00
25430;BME280;13360;48.152;-1.788;2023-08-08T00:42:34;101919.28;;;19.06;100.00
25430;BME280;13360;48.152;-1.788;2023-08-08T00:44:59;101923.25;;;19.05;100.00
25430;BME280;13360;48.152;-1.788;2023-08-08T00:47:30;101924.72;;;19.02;100.00
25430;BME280;13360;48.152;-1.788;2023-08-08T00:49:55;101919.94;;;19.03;100.00
25430;BME280;13360;48.152;-1.788;2023-08-08T00:52:21;101921.09;;;19.02;100.00
25430;BME280;13360;48.152;-1.788;2023-08-08T00:54:46;101916.97;;;18.99;100.00
25430;BME280;13360;48.152;-1.788;2023-08-08T00:57:12;101908.09;;;18.97;100.00
25430;BME280;13360;48.152;-1.788;2023-08-08T00:59:37;101920.44;;;18.96;100.00
25430;BME280;13360;48.152;-1.788;2023-08-08T01:02:02;101907.25;;;18.97;100.00
25430;BME280;13360;48.152;-1.788;2023-08-08T01:04:28;101911.50;;;18.94;100.00
25430;BME280;13360;48.152;-1.788;2023-08-08T01:09:39;101909.69;;;18.89;100.00
25430;BME280;13360;48.152;-1.788;2023-08-08T01:12:06;101910.34;;;18.86;100.00
25430;BME280;13360;48.152;-1.788;2023-08-08T01:14:33;101910.34;;;18.86;100.00
25430;BME280;13360;48.152;-1.788;2023-08-08T01:16:59;101902.94;;;18.82;100.00
25430;BME280;13360;48.152;-1.788;2023-08-08T01:19:27;101897.66;;;18.80;100.00
25430;BME280;13360;48.152;-1.788;2023-08-08T01:21:53;101888.44;;;18.80;100.00
25430;BME280;13360;48.152;-1.788;2023-08-08T01:24:22;101897.16;;;18.78;100.00
25430;BME280;13360;48.152;-1.788;2023-08-08T01:26:48;101889.41;;;18.75;100.00
25430;BME280;13360;48.152;-1.788;2023-08-08T01:29:14;101888.88;;;18.73;100.00
25430;BME280;13360;48.152;-1.788;2023-08-08T01:31:39;101892.00;;;18.72;100.00
25430;BME280;13360;48.152;-1.788;2023-08-08T01:34:04;101887.25;;;18.72;100.00
25430;BME280;13360;48.152;-1.788;2023-08-08T01:36:44;101880.81;;;18.72;100.00
25430;BME280;13360;48.152;-1.788;2023-08-08T01:39:13;101882.28;;;18.69;100.00
25430;BME280;13360;48.152;-1.788;2023-08-08T01:41:39;101875.06;;;18.68;100.00
25430;BME280;13360;48.152;-1.788;2023-08-08T01:44:05;101868.47;;;18.64;100.00
25430;BME280;13360;48.152;-1.788;2023-08-08T01:46:31;101863.47;;;18.61;100.00
25430;BME280;13360;48.152;-1.788;2023-08-08T01:48:57;101882.56;;;18.59;100.00
25430;BME280;13360;48.152;-1.788;2023-08-08T01:51:23;101880.59;;;18.59;100.00
25430;BME280;13360;48.152;-1.788;2023-08-08T01:53:50;101886.53;;;18.58;100.00
25430;BME280;13360;48.152;-1.788;2023-08-08T01:56:15;101893.59;;;18.55;100.00
25430;BME280;13360;48.152;-1.788;2023-08-08T01:58:40;101920.75;;;18.55;100.00
25430;BME280;13360;48.152;-1.788;2023-08-08T02:01:06;101916.59;;;18.52;100.00
25430;BME280;13360;48.152;-1.788;2023-08-08T02:03:31;101923.66;;;18.50;100.00
25430;BME280;13360;48.152;-1.788;2023-08-08T02:05:56;101944.06;;;18.50;100.00
25430;BME280;13360;48.152;-1.788;2023-08-08T02:08:21;101949.97;;;18.49;100.00
25430;BME280;13360;48.152;-1.788;2023-08-08T02:10:47;101948.34;;;18.48;100.00
25430;BME280;13360;48.152;-1.788;2023-08-08T02:13:12;101956.72;;;18.48;100.00
25430;BME280;13360;48.152;-1.788;2023-08-08T02:15:37;101971.88;;;18.47;100.00
25430;BME280;13360;48.152;-1.788;2023-08-08T02:18:02;101976.97;;;18.45;100.00
25430;BME280;13360;48.152;-1.788;2023-08-08T02:20:29;101976.44;;;18.43;100.00
25430;BME280;13360;48.152;-1.788;2023-08-08T02:22:54;101983.19;;;18.42;100.00
25430;BME280;13360;48.152;-1.788;2023-08-08T02:25:19;101992.72;;;18.41;100.00
25430;BME280;13360;48.152;-1.788;2023-08-08T02:27:45;101989.09;;;18.40;100.00
25430;BME280;13360;48.152;-1.788;2023-08-08T02:30:10;101988.59;;;18.38;100.00
25430;BME280;13360;48.152;-1.788;2023-08-08T02:32:35;101994.84;;;18.35;100.00
25430;BME280;13360;48.152;-1.788;2023-08-08T02:35:01;102003.56;;;18.34;100.00
25430;BME280;13360;48.152;-1.788;2023-08-08T02:37:26;102025.09;;;18.33;100.00
25430;BME280;13360;48.152;-1.788;2023-08-08T02:39:52;102024.28;;;18.33;100.00
25430;BME280;13360;48.152;-1.788;2023-08-08T02:42:17;102039.38;;;18.32;100.00
25430;BME280;13360;48.152;-1.788;2023-08-08T02:44:42;102037.72;;;18.31;100.00
25430;BME280;13360;48.152;-1.788;2023-08-08T02:47:08;102047.25;;;18.29;100.00
25430;BME280;13360;48.152;-1.788;2023-08-08T02:49:33;102057.63;;;18.29;100.00
25430;BME280;13360;48.152;-1.788;2023-08-08T02:51:58;102057.63;;;18.29;100.00
25430;BME280;13360;48.152;-1.788;2023-08-08T02:54:24;102068.00;;;18.28;100.00
25430;BME280;13360;48.152;-1.788;2023-08-08T02:56:49;102063.53;;;18.27;100.00
25430;BME280;13360;48.152;-1.788;2023-08-08T02:59:14;102068.63;;;18.25;100.00
25430;BME280;13360;48.152;-1.788;2023-08-08T03:01:39;102080.97;;;18.24;100.00
25430;BME280;13360;48.152;-1.788;2023-08-08T03:04:05;102085.41;;;18.25;100.00
25430;BME280;13360;48.152;-1.788;2023-08-08T03:06:30;102085.72;;;18.24;100.00
25430;BME280;13360;48.152;-1.788;2023-08-08T03:08:55;102094.44;;;18.22;100.00
25430;BME280;13360;48.152;-1.788;2023-08-08T03:11:21;102093.91;;;18.20;100.00
25430;BME280;13360;48.152;-1.788;2023-08-08T03:13:46;102103.13;;;18.21;100.00
25430;BME280;13360;48.152;-1.788;2023-08-08T03:16:11;102110.19;;;18.18;100.00
25430;BME280;13360;48.152;-1.788;2023-08-08T03:18:36;102126.47;;;18.16;100.00
25430;BME280;13360;48.152;-1.788;2023-08-08T03:21:02;102144.38;;;18.15;100.00
25430;BME280;13360;48.152;-1.788;2023-08-08T03:23:27;102136.63;;;18.12;100.00
25430;BME280;13360;48.152;-1.788;2023-08-08T03:25:53;102142.31;;;18.07;100.00
25430;BME280;13360;48.152;-1.788;2023-08-08T03:28:18;102137.66;;;18.03;100.00
25430;BME280;13360;48.152;-1.788;2023-08-08T03:30:43;102147.00;;;17.98;100.00
25430;BME280;13360;48.152;-1.788;2023-08-08T03:33:09;102154.88;;;17.96;100.00
25430;BME280;13360;48.152;-1.788;2023-08-08T03:35:34;102149.28;;;17.96;100.00
25430;BME280;13360;48.152;-1.788;2023-08-08T03:37:59;102145.97;;;17.94;100.00
25430;BME280;13360;48.152;-1.788;2023-08-08T03:40:24;102155.00;;;17.91;100.00
25430;BME280;13360;48.152;-1.788;2023-08-08T03:42:49;102165.63;;;17.89;100.00
25430;BME280;13360;48.152;-1.788;2023-08-08T03:45:15;102179.59;;;17.89;100.00
25430;BME280;13360;48.152;-1.788;2023-08-08T03:47:40;102178.25;;;17.86;100.00
25430;BME280;13360;48.152;-1.788;2023-08-08T03:50:06;102166.88;;;17.83;100.00
25430;BME280;13360;48.152;-1.788;2023-08-08T03:52:32;102169.47;;;17.79;100.00
25430;BME280;13360;48.152;-1.788;2023-08-08T03:54:59;102179.31;;;17.77;100.00
25430;BME280;13360;48.152;-1.788;2023-08-08T03:57:24;102172.06;;;17.76;100.00
25430;BME280;13360;48.152;-1.788;2023-08-08T03:59:49;102171.88;;;17.72;100.00
25430;BME280;13360;48.152;-1.788;2023-08-08T04:02:15;102168.00;;;17.68;100.00
25430;BME280;13360;48.152;-1.788;2023-08-08T04:04:40;102165.81;;;17.65;100.00
25430;BME280;13360;48.152;-1.788;2023-08-08T04:07:05;102158.88;;;17.62;100.00
25430;BME280;13360;48.152;-1.788;2023-08-08T04:09:30;102158.69;;;17.59;100.00
25430;BME280;13360;48.152;-1.788;2023-08-08T04:11:56;102154.53;;;17.56;100.00
25430;BME280;13360;48.152;-1.788;2023-08-08T04:14:21;102152.69;;;17.52;100.00
25430;BME280;13360;48.152;-1.788;2023-08-08T04:16:47;102145.75;;;17.49;100.00
25430;BME280;13360;48.152;-1.788;2023-08-08T04:19:12;102144.69;;;17.45;100.00
25430;BME280;13360;48.152;-1.788;2023-08-08T04:21:37;102142.22;;;17.44;100.00
25430;BME280;13360;48.152;-1.788;2023-08-08T04:24:02;102138.06;;;17.41;100.00
25430;BME280;13360;48.152;-1.788;2023-08-08T04:26:27;102132.28;;;17.37;100.00
25430;BME280;13360;48.152;-1.788;2023-08-08T04:28:53;102143.75;;;17.36;100.00
25430;BME280;13360;48.152;-1.788;2023-08-08T04:31:18;102130.44;;;17.33;100.00
25430;BME280;13360;48.152;-1.788;2023-08-08T04:33:43;102136.94;;;17.28;100.00
25430;BME280;13360;48.152;-1.788;2023-08-08T04:36:09;102117.97;;;17.25;100.00
25430;BME280;13360;48.152;-1.788;2023-08-08T04:38:34;102107.66;;;17.26;100.00
25430;BME280;13360;48.152;-1.788;2023-08-08T04:40:59;102104.66;;;17.22;100.00
25430;BME280;13360;48.152;-1.788;2023-08-08T04:43:25;102101.66;;;17.19;100.00
25430;BME280;13360;48.152;-1.788;2023-08-08T04:45:52;102097.50;;;17.16;100.00
25430;BME280;13360;48.152;-1.788;2023-08-08T04:48:17;102100.63;;;17.15;100.00
25430;BME280;13360;48.152;-1.788;2023-08-08T04:50:43;102100.63;;;17.15;100.00
25430;BME280;13360;48.152;-1.788;2023-08-08T04:53:08;102098.44;;;17.12;100.00
25430;BME280;13360;48.152;-1.788;2023-08-08T04:55:33;102090.06;;;17.12;100.00
25430;BME280;13360;48.152;-1.788;2023-08-08T04:57:58;102090.06;;;17.12;100.00
25430;BME280;13360;48.152;-1.788;2023-08-08T05:00:25;102085.63;;;17.11;100.00
25430;BME280;13360;48.152;-1.788;2023-08-08T05:02:53;102079.53;;;17.09;100.00
25430;BME280;13360;48.152;-1.788;2023-08-08T05:05:18;102069.50;;;17.08;100.00
25430;BME280;13360;48.152;-1.788;2023-08-08T05:07:43;102068.94;;;17.05;100.00
25430;BME280;13360;48.152;-1.788;2023-08-08T05:10:08;102070.91;;;17.05;100.00
25430;BME280;13360;48.152;-1.788;2023-08-08T05:12:34;102074.84;;;17.04;100.00
25430;BME280;13360;48.152;-1.788;2023-08-08T05:14:59;102081.56;;;17.03;100.00
25430;BME280;13360;48.152;-1.788;2023-08-08T05:17:24;102090.25;;;17.01;100.00
25430;BME280;13360;48.152;-1.788;2023-08-08T05:19:49;102099.75;;;17.00;100.00
25430;BME280;13360;48.152;-1.788;2023-08-08T05:22:15;102108.13;;;17.00;100.00
25430;BME280;13360;48.152;-1.788;2023-08-08T05:24:40;102116.19;;;17.02;100.00
25430;BME280;13360;48.152;-1.788;2023-08-08T05:27:05;102119.81;;;17.02;100.00
25430;BME280;13360;48.152;-1.788;2023-08-08T05:29:30;102137.38;;;17.03;100.00
25430;BME280;13360;48.152;-1.788;2023-08-08T05:31:55;102144.94;;;17.02;100.00
25430;BME280;13360;48.152;-1.788;2023-08-08T05:34:23;102146.59;;;17.03;100.00
25430;BME280;13360;48.152;-1.788;2023-08-08T05:36:48;102145.75;;;17.03;100.00
25430;BME280;13360;48.152;-1.788;2023-08-08T05:39:13;102132.63;;;17.03;100.00
25430;BME280;13360;48.152;-1.788;2023-08-08T05:41:39;102149.38;;;17.03;100.00
25430;BME280;13360;48.152;-1.788;2023-08-08T05:44:04;102138.53;;;17.02;100.00
25430;BME280;13360;48.152;-1.788;2023-08-08T05:46:29;102151.66;;;17.01;100.00
25430;BME280;13360;48.152;-1.788;2023-08-08T05:48:55;102162.81;;;17.01;100.00
25430;BME280;13360;48.152;-1.788;2023-08-08T05:51:20;102172.84;;;17.02;100.00
25430;BME280;13360;48.152;-1.788;2023-08-08T05:53:45;102188.47;;;17.03;100.00
25430;BME280;13360;48.152;-1.788;2023-08-08T05:56:11;102199.63;;;17.03;100.00
25430;BME280;13360;48.152;-1.788;2023-08-08T05:58:36;102218.84;;;17.05;100.00
25430;BME280;13360;48.152;-1.788;2023-08-08T06:01:04;102235.31;;;17.06;100.00
25430;BME280;13360;48.152;-1.788;2023-08-08T06:03:34;102252.59;;;17.09;100.00
25430;BME280;13360;48.152;-1.788;2023-08-08T06:06:00;102266.25;;;17.10;100.00
25430;BME280;13360;48.152;-1.788;2023-08-08T06:08:26;102267.09;;;17.11;100.00
25430;BME280;13360;48.152;-1.788;2023-08-08T06:10:51;102279.06;;;17.11;100.00
25430;BME280;13360;48.152;-1.788;2023-08-08T06:13:16;102293.88;;;17.12;100.00
25430;BME280;13360;48.152;-1.788;2023-08-08T06:15:42;102304.72;;;17.13;100.00
25430;BME280;13360;48.152;-1.788;2023-08-08T06:18:07;102323.13;;;17.14;100.00
25430;BME280;13360;48.152;-1.788;2023-08-08T06:20:32;102368.84;;;17.18;100.00
25430;BME280;13360;48.152;-1.788;2023-08-08T06:22:57;102404.84;;;17.20;100.00
25430;BME280;13360;48.152;-1.788;2023-08-08T06:25:23;102456.16;;;17.24;100.00
25430;BME280;13360;48.152;-1.788;2023-08-08T06:27:48;102501.38;;;17.26;100.00
25430;BME280;13360;48.152;-1.788;2023-08-08T06:30:14;102505.84;;;17.27;100.00
25430;BME280;13360;48.152;-1.788;2023-08-08T06:32:39;102518.41;;;17.29;100.00
25430;BME280;13360;48.152;-1.788;2023-08-08T06:35:05;102535.06;;;17.34;100.00
25430;BME280;13360;48.152;-1.788;2023-08-08T06:37:31;102611.25;;;17.40;100.00
25430;BME280;13360;48.152;-1.788;2023-08-08T06:39:56;102636.31;;;17.45;100.00
25430;BME280;13360;48.152;-1.788;2023-08-08T06:42:21;102636.84;;;17.47;100.00
25430;BME280;13360;48.152;-1.788;2023-08-08T06:44:46;102640.22;;;17.49;100.00
25430;BME280;13360;48.152;-1.788;2023-08-08T06:47:11;102633.19;;;17.52;100.00
25430;BME280;13360;48.152;-1.788;2023-08-08T06:49:37;102609.72;;;17.53;100.00
25430;BME280;13360;48.152;-1.788;2023-08-08T06:52:02;102602.69;;;17.55;100.00
25430;BME280;13360;48.152;-1.788;2023-08-08T06:54:28;102602.16;;;17.53;100.00
25430;BME280;13360;48.152;-1.788;2023-08-08T06:56:53;102621.94;;;17.57;100.00
25430;BME280;13360;48.152;-1.788;2023-08-08T06:59:19;102613.19;;;17.63;100.00
25430;BME280;13360;48.152;-1.788;2023-08-08T07:01:44;102632.16;;;17.66;100.00
25430;BME280;13360;48.152;-1.788;2023-08-08T07:04:09;102627.06;;;17.74;100.00
25430;BME280;13360;48.152;-1.788;2023-08-08T07:06:34;102633.94;;;17.81;100.00
25430;BME280;13360;48.152;-1.788;2023-08-08T07:09:01;102620.72;;;17.87;100.00
25430;BME280;13360;48.152;-1.788;2023-08-08T07:11:26;102608.38;;;17.93;100.00
25430;BME280;13360;48.152;-1.788;2023-08-08T07:13:52;102603.44;;;18.04;100.00
25430;BME280;13360;48.152;-1.788;2023-08-08T07:16:17;102581.66;;;18.19;100.00
25430;BME280;13360;48.152;-1.788;2023-08-08T07:18:42;102538.41;;;18.31;100.00
25430;BME280;13360;48.152;-1.788;2023-08-08T07:21:07;102489.13;;;18.35;100.00
25430;BME280;13360;48.152;-1.788;2023-08-08T07:23:33;102446.53;;;18.38;100.00
25430;BME280;13360;48.152;-1.788;2023-08-08T07:25:58;102418.78;;;18.41;100.00
25430;BME280;13360;48.152;-1.788;2023-08-08T07:28:24;102400.09;;;18.50;100.00
25430;BME280;13360;48.152;-1.788;2023-08-08T07:30:49;102395.59;;;18.68;100.00
25430;BME280;13360;48.152;-1.788;2023-08-08T07:33:14;102371.72;;;18.84;100.00
25430;BME280;13360;48.152;-1.788;2023-08-08T07:35:39;102323.50;;;18.87;100.00
25430;BME280;13360;48.152;-1.788;2023-08-08T07:38:05;102247.19;;;18.96;100.00
25430;BME280;13360;48.152;-1.788;2023-08-08T07:40:30;102189.44;;;19.08;100.00
25430;BME280;13360;48.152;-1.788;2023-08-08T07:42:55;102152.31;;;19.25;100.00
25430;BME280;13360;48.152;-1.788;2023-08-08T07:45:20;102121.72;;;19.37;100.00
25430;BME280;13360;48.152;-1.788;2023-08-08T07:47:46;102101.47;;;19.80;100.00
25430;BME280;13360;48.152;-1.788;2023-08-08T07:50:11;102053.00;;;20.23;100.00
25430;BME280;13360;48.152;-1.788;2023-08-08T07:52:37;101995.13;;;20.82;100.00
25430;BME280;13360;48.152;-1.788;2023-08-08T07:55:03;101918.78;;;21.48;100.00
25430;BME280;13360;48.152;-1.788;2023-08-08T07:57:28;101851.72;;;21.91;100.00
25430;BME280;13360;48.152;-1.788;2023-08-08T07:59:55;101800.09;;;22.45;100.00
25430;BME280;13360;48.152;-1.788;2023-08-08T08:02:20;101742.13;;;22.93;100.00
25430;BME280;13360;48.152;-1.788;2023-08-08T08:04:46;101699.72;;;23.01;100.00
25430;BME280;13360;48.152;-1.788;2023-08-08T08:07:11;101664.16;;;22.97;100.00
25430;BME280;13360;48.152;-1.788;2023-08-08T08:09:36;101657.44;;;23.01;100.00
25430;BME280;13360;48.152;-1.788;2023-08-08T08:12:01;101643.50;;;23.21;100.00
25430;BME280;13360;48.152;-1.788;2023-08-08T08:14:27;101628.34;;;23.72;100.00
25430;BME280;13360;48.152;-1.788;2023-08-08T08:16:52;101622.03;;;24.11;100.00
25430;BME280;13360;48.152;-1.788;2023-08-08T08:19:18;101619.66;;;24.28;100.00
25430;BME280;13360;48.152;-1.788;2023-08-08T08:21:43;101607.56;;;24.47;100.00
25430;BME280;13360;48.152;-1.788;2023-08-08T08:24:08;101598.81;;;24.17;100.00
25430;BME280;13360;48.152;-1.788;2023-08-08T08:26:33;101609.91;;;24.10;100.00
25430;BME280;13360;48.152;-1.788;2023-08-08T08:28:58;101606.78;;;24.31;100.00
25430;BME280;13360;48.152;-1.788;2023-08-08T08:31:24;101602.59;;;24.79;100.00
25430;BME280;13360;48.152;-1.788;2023-08-08T08:33:49;101605.81;;;25.20;100.00
25430;BME280;13360;48.152;-1.788;2023-08-08T08:36:14;101595.44;;;25.50;100.00
25430;BME280;13360;48.152;-1.788;2023-08-08T08:38:39;101598.91;;;25.86;100.00
25430;BME280;13360;48.152;-1.788;2023-08-08T08:41:05;101601.41;;;26.21;100.00
25430;BME280;13360;48.152;-1.788;2023-08-08T08:43:30;101593.09;;;26.62;100.00
25430;BME280;13360;48.152;-1.788;2023-08-08T08:45:56;101594.56;;;26.86;100.00
25430;BME280;13360;48.152;-1.788;2023-08-08T08:48:24;101594.00;;;27.03;100.00
25430;BME280;13360;48.152;-1.788;2023-08-08T08:50:50;101594.22;;;27.24;100.00
25430;BME280;13360;48.152;-1.788;2023-08-08T08:53:15;101592.66;;;27.30;100.00
25430;BME280;13360;48.152;-1.788;2023-08-08T08:55:42;101593.72;;;27.59;100.00
25430;BME280;13360;48.152;-1.788;2023-08-08T08:58:08;101601.63;;;27.80;100.00
25430;BME280;13360;48.152;-1.788;2023-08-08T09:00:34;101587.44;;;27.80;100.00
25430;BME280;13360;48.152;-1.788;2023-08-08T09:03:00;101584.31;;;28.00;100.00
25430;BME280;13360;48.152;-1.788;2023-08-08T09:05:25;101586.19;;;27.74;100.00
25430;BME280;13360;48.152;-1.788;2023-08-08T09:07:51;101581.78;;;27.87;100.00
25430;BME280;13360;48.152;-1.788;2023-08-08T09:10:16;101583.09;;;28.01;100.00
25430;BME280;13360;48.152;-1.788;2023-08-08T09:12:42;101587.81;;;27.75;100.00
25430;BME280;13360;48.152;-1.788;2023-08-08T09:15:07;101601.22;;;27.38;100.00
25430;BME280;13360;48.152;-1.788;2023-08-08T09:17:34;101600.56;;;27.11;100.00
25430;BME280;13360;48.152;-1.788;2023-08-08T09:19:59;101629.47;;;26.90;100.00
25430;BME280;13360;48.152;-1.788;2023-08-08T09:22:24;101623.91;;;27.78;100.00
25430;BME280;13360;48.152;-1.788;2023-08-08T09:24:51;101611.47;;;27.97;100.00
25430;BME280;13360;48.152;-1.788;2023-08-08T09:27:17;101623.72;;;27.16;100.00
25430;BME280;13360;48.152;-1.788;2023-08-08T09:29:42;101614.66;;;26.70;100.00
25430;BME280;13360;48.152;-1.788;2023-08-08T09:32:07;101646.94;;;27.29;100.00
25430;BME280;13360;48.152;-1.788;2023-08-08T09:34:33;101625.91;;;28.29;100.00
25430;BME280;13360;48.152;-1.788;2023-08-08T09:36:58;101605.94;;;29.02;100.00
25430;BME280;13360;48.152;-1.788;2023-08-08T09:39:23;101607.38;;;28.57;100.00
25430;BME280;13360;48.152;-1.788;2023-08-08T09:41:49;101632.28;;;28.88;100.00
25430;BME280;13360;48.152;-1.788;2023-08-08T09:44:14;101600.31;;;29.55;100.00
25430;BME280;13360;48.152;-1.788;2023-08-08T09:46:40;101595.06;;;29.79;100.00
25430;BME280;13360;48.152;-1.788;2023-08-08T09:49:05;101604.38;;;30.22;100.00
25430;BME280;13360;48.152;-1.788;2023-08-08T09:51:30;101614.41;;;30.55;100.00
25430;BME280;13360;48.152;-1.788;2023-08-08T09:53:56;101603.31;;;30.85;100.00
25430;BME280;13360;48.152;-1.788;2023-08-08T09:56:23;101597.22;;;30.80;100.00
25430;BME280;13360;48.152;-1.788;2023-08-08T09:58:48;101596.75;;;30.92;100.00
25430;BME280;13360;48.152;-1.788;2023-08-08T10:01:14;101600.25;;;31.24;100.00
25430;BME280;13360;48.152;-1.788;2023-08-08T10:03:39;101603.09;;;31.28;100.00
25430;BME280;13360;48.152;-1.788;2023-08-08T10:06:08;101615.00;;;31.09;100.00
25430;BME280;13360;48.152;-1.788;2023-08-08T10:08:33;101606.81;;;31.14;100.00
25430;BME280;13360;48.152;-1.788;2023-08-08T10:10:58;101601.31;;;31.45;100.00
25430;BME280;13360;48.152;-1.788;2023-08-08T10:13:24;101605.63;;;31.67;100.00
25430;BME280;13360;48.152;-1.788;2023-08-08T10:15:50;101607.88;;;31.90;100.00
25430;BME280;13360;48.152;-1.788;2023-08-08T10:18:16;101603.09;;;31.76;100.00
25430;BME280;13360;48.152;-1.788;2023-08-08T10:20:42;101607.78;;;31.52;100.00
25430;BME280;13360;48.152;-1.788;2023-08-08T10:23:08;101600.63;;;30.46;100.00
25430;BME280;13360;48.152;-1.788;2023-08-08T10:25:33;101599.53;;;29.65;100.00
25430;BME280;13360;48.152;-1.788;2023-08-08T10:28:17;101596.59;;;29.08;100.00
25430;BME280;13360;48.152;-1.788;2023-08-08T10:30:56;101592.72;;;28.47;100.00
25430;BME280;13360;48.152;-1.788;2023-08-08T10:33:23;101565.63;;;27.91;100.00
25430;BME280;13360;48.152;-1.788;2023-08-08T10:38:24;101575.22;;;27.28;100.00
25430;BME280;13360;48.152;-1.788;2023-08-08T10:40:58;101607.09;;;27.15;100.00
25430;BME280;13360;48.152;-1.788;2023-08-08T10:43:27;101618.72;;;27.06;100.00
25430;BME280;13360;48.152;-1.788;2023-08-08T10:45:56;101619.47;;;26.99;100.00
25430;BME280;13360;48.152;-1.788;2023-08-08T10:48:22;101604.34;;;26.88;100.00
25430;BME280;13360;48.152;-1.788;2023-08-08T10:50:47;101599.25;;;26.67;100.00
25430;BME280;13360;48.152;-1.788;2023-08-08T10:53:12;101623.44;;;26.61;100.00
25430;BME280;13360;48.152;-1.788;2023-08-08T10:55:37;101603.91;;;26.53;100.00
25430;BME280;13360;48.152;-1.788;2023-08-08T11:00:32;101632.81;;;26.35;100.00
25430;BME280;13360;48.152;-1.788;2023-08-08T11:02:58;101623.03;;;26.33;100.00
25430;BME280;13360;48.152;-1.788;2023-08-08T11:05:24;101630.41;;;26.37;100.00
25430;BME280;13360;48.152;-1.788;2023-08-08T11:07:51;101642.94;;;26.36;100.00
25430;BME280;13360;48.152;-1.788;2023-08-08T11:10:16;101595.50;;;26.30;100.00
25430;BME280;13360;48.152;-1.788;2023-08-08T11:12:42;101595.38;;;26.23;100.00
25430;BME280;13360;48.152;-1.788;2023-08-08T11:15:16;101616.56;;;26.32;100.00
25430;BME280;13360;48.152;-1.788;2023-08-08T11:17:42;101634.53;;;26.43;100.00
25430;BME280;13360;48.152;-1.788;2023-08-08T11:20:07;101622.38;;;26.43;100.00
25430;BME280;13360;48.152;-1.788;2023-08-08T11:22:33;101583.69;;;26.24;100.00
25430;BME280;13360;48.152;-1.788;2023-08-08T11:24:58;101602.75;;;26.27;100.00
25430;BME280;13360;48.152;-1.788;2023-08-08T11:27:29;101613.69;;;26.29;100.00
25430;BME280;13360;48.152;-1.788;2023-08-08T11:29:55;101604.41;;;26.32;100.00
25430;BME280;13360;48.152;-1.788;2023-08-08T11:32:21;101562.38;;;26.34;100.00
25430;BME280;13360;48.152;-1.788;2023-08-08T11:34:47;101578.88;;;26.28;100.00
25430;BME280;13360;48.152;-1.788;2023-08-08T11:37:12;101558.09;;;26.17;100.00
25430;BME280;13360;48.152;-1.788;2023-08-08T11:39:40;101582.88;;;26.24;100.00
25430;BME280;13360;48.152;-1.788;2023-08-08T11:42:05;101538.75;;;26.23;100.00
25430;BME280;13360;48.152;-1.788;2023-08-08T11:44:31;101549.63;;;26.21;100.00
25430;BME280;13360;48.152;-1.788;2023-08-08T11:46:59;101569.16;;;26.26;100.00
25430;BME280;13360;48.152;-1.788;2023-08-08T11:49:24;101569.53;;;26.24;100.00
25430;BME280;13360;48.152;-1.788;2023-08-08T11:51:50;101546.72;;;26.13;100.00
25430;BME280;13360;48.152;-1.788;2023-08-08T11:54:15;101558.91;;;26.18;100.00
25430;BME280;13360;48.152;-1.788;2023-08-08T11:56:40;101562.94;;;26.17;100.00
25430;BME280;13360;48.152;-1.788;2023-08-08T11:59:06;101568.94;;;26.11;100.00
25430;BME280;13360;48.152;-1.788;2023-08-08T12:01:32;101560.34;;;26.04;100.00
25430;BME280;13360;48.152;-1.788;2023-08-08T12:03:58;101555.00;;;25.99;100.00
25430;BME280;13360;48.152;-1.788;2023-08-08T12:06:27;101550.66;;;26.05;100.00
25430;BME280;13360;48.152;-1.788;2023-08-08T12:08:53;101544.94;;;26.02;100.00
25430;BME280;13360;48.152;-1.788;2023-08-08T12:11:18;101531.94;;;25.97;100.00
25430;BME280;13360;48.152;-1.788;2023-08-08T12:13:44;101545.69;;;25.99;100.00
25430;BME280;13360;48.152;-1.788;2023-08-08T12:16:10;101547.28;;;25.96;100.00
25430;BME280;13360;48.152;-1.788;2023-08-08T12:18:36;101541.75;;;26.03;100.00
25430;BME280;13360;48.152;-1.788;2023-08-08T12:21:03;101536.25;;;25.88;100.00
25430;BME280;13360;48.152;-1.788;2023-08-08T12:23:28;101541.56;;;25.93;100.00
25430;BME280;13360;48.152;-1.788;2023-08-08T12:25:53;101539.34;;;26.05;100.00
25430;BME280;13360;48.152;-1.788;2023-08-08T12:28:18;101524.81;;;26.07;100.00
25430;BME280;13360;48.152;-1.788;2023-08-08T12:30:44;101488.41;;;25.79;100.00